Taraz Airport
UADD : now visible

Airfield :











YOU CAN JOIN US ON...

 
LOGIN :

Register | Disclaimer

   EN    FR    IT 

 









Legend :    VFR   Marginal VFR   IFR   Intensive IFR   Very Intensive IFR
Visi :
Ceiling :
>= 8 km
>= 3000ft
5 to 8 km
1000 to 3000 ft
1500m to 5 km
500 to 1000 ft
800 to 1500m
200 to 500 ft
< 800m
< 200 ft
Symbols :   Thunderstorms  Fog  Heavy snow  Heavy precipitations  Wind > 20 kt






- Airport Elevation : 2184 ft
- IATA code : DMB


UADD - Taraz

CURRENT METAR :
  • 311900Z 21003MPS 9999 NSC 18/06 Q1009 R13/0///65 NOSIG RMK QFE700/0934

EXPIRED METARs :
  • 311830Z 21003MPS 9999 NSC 19/06 Q1009 R13/0///65 NOSIG RMK QFE700/0934
  • 311800Z 22003MPS 9999 NSC 18/06 Q1009 R13/0///65 NOSIG RMK QFE700/0934
  • 311730Z 26003MPS 9999 NSC 18/06 Q1010 R13/0///65 NOSIG RMK QFE701/0934
  • 311700Z 22002MPS 9999 NSC 20/05 Q1010 R13/0///65 NOSIG RMK QFE701/0934
  • 311630Z 08003MPS 9999 NSC 28/01 Q1009 R13/0///65 NOSIG RMK QFE700/0934

TAF TAF UADD
Valid from the 31 at 18:00 until the 01 at 03:00 UTC


311700Z 3118/0103 20005G10MPS 9999 NSC
UAAA FIR / Asia



MET'MAP, your aeronautical weather chart ! - Copyright ORBIFLY December 2007 - Disclaimer

ORBIFLY MET'MAP TEAM :

Programming & Development : Alexandra Zaïnal
Concept & original design : Baudouin d'Aumeries
Assistance for programming : Marc-Olivier Méhu
Technical & hardware support : Manuel Goepfert

Contact : metmap@orbifly.com




SOURCES & CREDITS :

   NOAA       Earth
Advisory